sensor_id;sensor_type;location;lat;lon;timestamp;temperature;humidity
81935;DHT22;71405;47.674;-2.050;2024-01-15T00:02:20;18.80;44.50
81935;DHT22;71405;47.674;-2.050;2024-01-15T00:04:46;18.80;44.40
81935;DHT22;71405;47.674;-2.050;2024-01-15T00:07:12;18.80;44.20
81935;DHT22;71405;47.674;-2.050;2024-01-15T00:09:37;18.80;44.20
81935;DHT22;71405;47.674;-2.050;2024-01-15T00:12:03;18.80;44.00
81935;DHT22;71405;47.674;-2.050;2024-01-15T00:14:29;18.70;43.90
81935;DHT22;71405;47.674;-2.050;2024-01-15T00:16:55;18.70;43.90
81935;DHT22;71405;47.674;-2.050;2024-01-15T00:19:21;18.80;44.00
81935;DHT22;71405;47.674;-2.050;2024-01-15T00:21:47;18.80;44.70
81935;DHT22;71405;47.674;-2.050;2024-01-15T00:24:13;18.70;44.00
81935;DHT22;71405;47.674;-2.050;2024-01-15T00:26:40;18.70;44.10
81935;DHT22;71405;47.674;-2.050;2024-01-15T00:29:09;18.70;44.20
81935;DHT22;71405;47.674;-2.050;2024-01-15T00:31:34;18.70;44.10
81935;DHT22;71405;47.674;-2.050;2024-01-15T00:34:00;18.70;44.10
81935;DHT22;71405;47.674;-2.050;2024-01-15T00:36:26;18.70;44.30
81935;DHT22;71405;47.674;-2.050;2024-01-15T00:38:52;18.70;44.30
81935;DHT22;71405;47.674;-2.050;2024-01-15T00:41:18;18.70;44.10
81935;DHT22;71405;47.674;-2.050;2024-01-15T00:43:45;18.70;44.10
81935;DHT22;71405;47.674;-2.050;2024-01-15T00:46:11;18.70;44.00
81935;DHT22;71405;47.674;-2.050;2024-01-15T00:48:37;18.70;44.40
81935;DHT22;71405;47.674;-2.050;2024-01-15T00:51:04;18.70;44.20
81935;DHT22;71405;47.674;-2.050;2024-01-15T00:53:30;18.70;44.70
81935;DHT22;71405;47.674;-2.050;2024-01-15T00:55:56;18.70;44.30
81935;DHT22;71405;47.674;-2.050;2024-01-15T00:58:22;18.60;44.10
81935;DHT22;71405;47.674;-2.050;2024-01-15T01:00:47;18.60;44.20
81935;DHT22;71405;47.674;-2.050;2024-01-15T01:03:13;18.60;44.20
81935;DHT22;71405;47.674;-2.050;2024-01-15T01:05:39;18.60;44.10
81935;DHT22;71405;47.674;-2.050;2024-01-15T01:08:05;18.60;44.30
81935;DHT22;71405;47.674;-2.050;2024-01-15T01:10:31;18.60;44.50
81935;DHT22;71405;47.674;-2.050;2024-01-15T01:12:56;18.60;44.50
81935;DHT22;71405;47.674;-2.050;2024-01-15T01:15:22;18.60;44.10
81935;DHT22;71405;47.674;-2.050;2024-01-15T01:17:48;18.60;43.90
81935;DHT22;71405;47.674;-2.050;2024-01-15T01:20:13;18.60;44.00
81935;DHT22;71405;47.674;-2.050;2024-01-15T01:22:40;18.60;44.00
81935;DHT22;71405;47.674;-2.050;2024-01-15T01:25:06;18.60;43.70
81935;DHT22;71405;47.674;-2.050;2024-01-15T01:27:33;18.60;43.70
81935;DHT22;71405;47.674;-2.050;2024-01-15T01:29:58;18.60;43.80
81935;DHT22;71405;47.674;-2.050;2024-01-15T01:32:24;18.60;43.80
81935;DHT22;71405;47.674;-2.050;2024-01-15T01:34:50;18.60;43.80
81935;DHT22;71405;47.674;-2.050;2024-01-15T01:37:15;18.60;43.90
81935;DHT22;71405;47.674;-2.050;2024-01-15T01:39:42;18.60;43.70
81935;DHT22;71405;47.674;-2.050;2024-01-15T01:42:08;18.60;43.70
81935;DHT22;71405;47.674;-2.050;2024-01-15T01:44:33;18.60;43.70
81935;DHT22;71405;47.674;-2.050;2024-01-15T01:47:00;18.60;43.80
81935;DHT22;71405;47.674;-2.050;2024-01-15T01:49:27;18.60;44.00
81935;DHT22;71405;47.674;-2.050;2024-01-15T01:51:55;18.60;43.80
81935;DHT22;71405;47.674;-2.050;2024-01-15T01:54:22;18.60;43.70
81935;DHT22;71405;47.674;-2.050;2024-01-15T01:56:48;18.60;43.70
81935;DHT22;71405;47.674;-2.050;2024-01-15T01:59:14;18.60;43.70
81935;DHT22;71405;47.674;-2.050;2024-01-15T02:01:40;18.50;43.50
81935;DHT22;71405;47.674;-2.050;2024-01-15T02:04:07;18.60;44.20
81935;DHT22;71405;47.674;-2.050;2024-01-15T02:06:34;18.60;43.70
81935;DHT22;71405;47.674;-2.050;2024-01-15T02:09:00;18.60;43.60
81935;DHT22;71405;47.674;-2.050;2024-01-15T02:11:26;18.60;43.90
81935;DHT22;71405;47.674;-2.050;2024-01-15T02:13:52;18.60;43.90
81935;DHT22;71405;47.674;-2.050;2024-01-15T02:16:17;18.60;43.80
81935;DHT22;71405;47.674;-2.050;2024-01-15T02:18:44;18.60;43.50
81935;DHT22;71405;47.674;-2.050;2024-01-15T02:21:10;18.60;43.80
81935;DHT22;71405;47.674;-2.050;2024-01-15T02:23:37;18.60;43.70
81935;DHT22;71405;47.674;-2.050;2024-01-15T02:26:05;18.50;43.80
81935;DHT22;71405;47.674;-2.050;2024-01-15T02:28:31;18.60;43.90
81935;DHT22;71405;47.674;-2.050;2024-01-15T02:30:58;18.50;44.00
81935;DHT22;71405;47.674;-2.050;2024-01-15T02:33:23;18.50;43.80
81935;DHT22;71405;47.674;-2.050;2024-01-15T02:35:49;18.50;43.80
81935;DHT22;71405;47.674;-2.050;2024-01-15T02:38:18;18.50;43.60
81935;DHT22;71405;47.674;-2.050;2024-01-15T02:40:44;18.60;43.90
81935;DHT22;71405;47.674;-2.050;2024-01-15T02:43:10;18.60;43.70
81935;DHT22;71405;47.674;-2.050;2024-01-15T02:45:36;18.50;43.70
81935;DHT22;71405;47.674;-2.050;2024-01-15T02:48:02;18.50;43.70
81935;DHT22;71405;47.674;-2.050;2024-01-15T02:50:28;18.60;43.60
81935;DHT22;71405;47.674;-2.050;2024-01-15T02:52:53;18.60;43.50
81935;DHT22;71405;47.674;-2.050;2024-01-15T02:55:19;18.60;43.60
81935;DHT22;71405;47.674;-2.050;2024-01-15T02:57:45;18.50;43.60
81935;DHT22;71405;47.674;-2.050;2024-01-15T03:00:11;18.60;43.60
81935;DHT22;71405;47.674;-2.050;2024-01-15T03:02:38;18.60;43.60
81935;DHT22;71405;47.674;-2.050;2024-01-15T03:05:06;18.50;43.50
81935;DHT22;71405;47.674;-2.050;2024-01-15T03:07:32;18.50;43.70
81935;DHT22;71405;47.674;-2.050;2024-01-15T03:09:57;18.60;43.60
81935;DHT22;71405;47.674;-2.050;2024-01-15T03:12:23;18.50;43.60
81935;DHT22;71405;47.674;-2.050;2024-01-15T03:14:49;18.50;43.70
81935;DHT22;71405;47.674;-2.050;2024-01-15T03:17:14;18.50;43.60
81935;DHT22;71405;47.674;-2.050;2024-01-15T03:19:40;18.50;43.60
81935;DHT22;71405;47.674;-2.050;2024-01-15T03:22:06;18.50;43.60
81935;DHT22;71405;47.674;-2.050;2024-01-15T03:24:33;18.50;43.70
81935;DHT22;71405;47.674;-2.050;2024-01-15T03:26:59;18.50;43.60
81935;DHT22;71405;47.674;-2.050;2024-01-15T03:29:26;18.50;43.60
81935;DHT22;71405;47.674;-2.050;2024-01-15T03:31:52;18.50;43.60
81935;DHT22;71405;47.674;-2.050;2024-01-15T03:34:17;18.50;43.60
81935;DHT22;71405;47.674;-2.050;2024-01-15T03:36:43;18.50;43.70
81935;DHT22;71405;47.674;-2.050;2024-01-15T03:39:08;18.50;43.70
81935;DHT22;71405;47.674;-2.050;2024-01-15T03:41:34;18.50;43.60
81935;DHT22;71405;47.674;-2.050;2024-01-15T03:44:00;18.50;43.60
81935;DHT22;71405;47.674;-2.050;2024-01-15T03:46:26;18.50;43.50
81935;DHT22;71405;47.674;-2.050;2024-01-15T03:48:52;18.50;43.90
81935;DHT22;71405;47.674;-2.050;2024-01-15T03:51:18;18.50;43.60
81935;DHT22;71405;47.674;-2.050;2024-01-15T03:53:44;18.50;43.60
81935;DHT22;71405;47.674;-2.050;2024-01-15T03:56:10;18.50;43.70
81935;DHT22;71405;47.674;-2.050;2024-01-15T03:58:36;18.50;43.80
81935;DHT22;71405;47.674;-2.050;2024-01-15T04:01:01;18.50;43.60
81935;DHT22;71405;47.674;-2.050;2024-01-15T04:03:27;18.50;43.80
81935;DHT22;71405;47.674;-2.050;2024-01-15T04:05:53;18.50;43.70
81935;DHT22;71405;47.674;-2.050;2024-01-15T04:08:18;18.50;44.80
81935;DHT22;71405;47.674;-2.050;2024-01-15T04:10:44;18.60;44.80
81935;DHT22;71405;47.674;-2.050;2024-01-15T04:13:10;18.60;43.70
81935;DHT22;71405;47.674;-2.050;2024-01-15T04:15:35;18.70;43.80
81935;DHT22;71405;47.674;-2.050;2024-01-15T04:18:02;18.70;43.80
81935;DHT22;71405;47.674;-2.050;2024-01-15T04:20:28;18.70;43.80
81935;DHT22;71405;47.674;-2.050;2024-01-15T04:22:54;18.70;43.90
81935;DHT22;71405;47.674;-2.050;2024-01-15T04:25:20;18.70;43.90
81935;DHT22;71405;47.674;-2.050;2024-01-15T04:27:45;18.70;43.70
81935;DHT22;71405;47.674;-2.050;2024-01-15T04:30:11;18.70;43.60
81935;DHT22;71405;47.674;-2.050;2024-01-15T04:32:37;18.70;43.70
81935;DHT22;71405;47.674;-2.050;2024-01-15T04:35:03;18.70;43.70
81935;DHT22;71405;47.674;-2.050;2024-01-15T04:37:29;18.70;43.70
81935;DHT22;71405;47.674;-2.050;2024-01-15T04:39:54;18.70;43.50
81935;DHT22;71405;47.674;-2.050;2024-01-15T04:42:23;18.70;43.90
81935;DHT22;71405;47.674;-2.050;2024-01-15T04:44:49;18.70;44.00
81935;DHT22;71405;47.674;-2.050;2024-01-15T04:47:15;18.70;43.50
81935;DHT22;71405;47.674;-2.050;2024-01-15T04:49:41;18.70;43.80
81935;DHT22;71405;47.674;-2.050;2024-01-15T04:52:06;18.70;43.50
81935;DHT22;71405;47.674;-2.050;2024-01-15T04:54:32;18.70;43.50
81935;DHT22;71405;47.674;-2.050;2024-01-15T04:56:58;18.70;43.50
81935;DHT22;71405;47.674;-2.050;2024-01-15T04:59:23;18.80;44.00
81935;DHT22;71405;47.674;-2.050;2024-01-15T05:01:49;18.70;43.60
81935;DHT22;71405;47.674;-2.050;2024-01-15T05:04:15;18.80;43.50
81935;DHT22;71405;47.674;-2.050;2024-01-15T05:06:40;18.80;43.90
81935;DHT22;71405;47.674;-2.050;2024-01-15T05:09:06;18.80;43.60
81935;DHT22;71405;47.674;-2.050;2024-01-15T05:11:32;18.80;43.80
81935;DHT22;71405;47.674;-2.050;2024-01-15T05:13:58;18.80;43.50
81935;DHT22;71405;47.674;-2.050;2024-01-15T05:16:23;18.80;43.80
81935;DHT22;71405;47.674;-2.050;2024-01-15T05:18:49;18.80;43.70
81935;DHT22;71405;47.674;-2.050;2024-01-15T05:21:15;18.80;43.50
81935;DHT22;71405;47.674;-2.050;2024-01-15T05:23:40;18.80;43.50
81935;DHT22;71405;47.674;-2.050;2024-01-15T05:26:06;18.80;43.60
81935;DHT22;71405;47.674;-2.050;2024-01-15T05:28:34;18.80;43.50
81935;DHT22;71405;47.674;-2.050;2024-01-15T05:31:00;18.80;43.80
81935;DHT22;71405;47.674;-2.050;2024-01-15T05:33:25;18.90;43.60
81935;DHT22;71405;47.674;-2.050;2024-01-15T05:35:51;18.90;43.80
81935;DHT22;71405;47.674;-2.050;2024-01-15T05:38:17;18.80;43.70
81935;DHT22;71405;47.674;-2.050;2024-01-15T05:40:43;18.80;43.50
81935;DHT22;71405;47.674;-2.050;2024-01-15T05:43:08;18.80;43.50
81935;DHT22;71405;47.674;-2.050;2024-01-15T05:45:35;18.80;44.10
81935;DHT22;71405;47.674;-2.050;2024-01-15T05:48:03;18.80;43.70
81935;DHT22;71405;47.674;-2.050;2024-01-15T05:50:29;18.90;43.80
81935;DHT22;71405;47.674;-2.050;2024-01-15T05:52:55;18.90;43.80
81935;DHT22;71405;47.674;-2.050;2024-01-15T05:55:20;18.90;43.70
81935;DHT22;71405;47.674;-2.050;2024-01-15T05:57:46;18.90;44.70
81935;DHT22;71405;47.674;-2.050;2024-01-15T06:00:12;18.90;43.60
81935;DHT22;71405;47.674;-2.050;2024-01-15T06:02:38;18.90;44.00
81935;DHT22;71405;47.674;-2.050;2024-01-15T06:05:05;18.90;44.10
81935;DHT22;71405;47.674;-2.050;2024-01-15T06:07:31;18.90;43.70
81935;DHT22;71405;47.674;-2.050;2024-01-15T06:09:57;18.90;44.40
81935;DHT22;71405;47.674;-2.050;2024-01-15T06:12:23;18.90;43.60
81935;DHT22;71405;47.674;-2.050;2024-01-15T06:14:49;18.90;43.40
81935;DHT22;71405;47.674;-2.050;2024-01-15T06:17:14;18.90;43.30
81935;DHT22;71405;47.674;-2.050;2024-01-15T06:19:40;18.90;43.30
81935;DHT22;71405;47.674;-2.050;2024-01-15T06:22:06;18.80;43.20
81935;DHT22;71405;47.674;-2.050;2024-01-15T06:24:31;18.80;43.30
81935;DHT22;71405;47.674;-2.050;2024-01-15T06:26:57;18.80;43.40
81935;DHT22;71405;47.674;-2.050;2024-01-15T06:29:25;18.80;43.40
81935;DHT22;71405;47.674;-2.050;2024-01-15T06:31:52;18.80;43.40
81935;DHT22;71405;47.674;-2.050;2024-01-15T06:34:18;18.80;43.60
81935;DHT22;71405;47.674;-2.050;2024-01-15T06:36:43;18.80;43.40
81935;DHT22;71405;47.674;-2.050;2024-01-15T06:39:09;18.80;43.50
81935;DHT22;71405;47.674;-2.050;2024-01-15T06:41:36;18.70;43.70
81935;DHT22;71405;47.674;-2.050;2024-01-15T06:44:11;18.70;44.40
81935;DHT22;71405;47.674;-2.050;2024-01-15T06:46:42;18.70;44.10
81935;DHT22;71405;47.674;-2.050;2024-01-15T06:49:08;18.70;44.30
81935;DHT22;71405;47.674;-2.050;2024-01-15T06:51:33;18.60;44.10
81935;DHT22;71405;47.674;-2.050;2024-01-15T06:53:59;18.60;44.20
81935;DHT22;71405;47.674;-2.050;2024-01-15T06:56:24;18.60;44.70
81935;DHT22;71405;47.674;-2.050;2024-01-15T06:58:51;18.60;44.60
81935;DHT22;71405;47.674;-2.050;2024-01-15T07:01:17;18.60;44.30
81935;DHT22;71405;47.674;-2.050;2024-01-15T07:03:42;18.60;44.40
81935;DHT22;71405;47.674;-2.050;2024-01-15T07:06:08;18.60;44.50
81935;DHT22;71405;47.674;-2.050;2024-01-15T07:08:34;18.50;44.50
81935;DHT22;71405;47.674;-2.050;2024-01-15T07:10:59;18.50;44.40
81935;DHT22;71405;47.674;-2.050;2024-01-15T07:13:28;18.50;44.60
81935;DHT22;71405;47.674;-2.050;2024-01-15T07:15:54;18.50;44.90
81935;DHT22;71405;47.674;-2.050;2024-01-15T07:18:19;18.50;45.00
81935;DHT22;71405;47.674;-2.050;2024-01-15T07:20:45;18.50;44.90
81935;DHT22;71405;47.674;-2.050;2024-01-15T07:23:11;18.50;44.80
81935;DHT22;71405;47.674;-2.050;2024-01-15T07:25:37;18.50;45.50
81935;DHT22;71405;47.674;-2.050;2024-01-15T07:28:03;18.50;46.30
81935;DHT22;71405;47.674;-2.050;2024-01-15T07:30:29;18.40;46.30
81935;DHT22;71405;47.674;-2.050;2024-01-15T07:32:55;18.40;46.30
81935;DHT22;71405;47.674;-2.050;2024-01-15T07:35:21;18.40;47.30
81935;DHT22;71405;47.674;-2.050;2024-01-15T07:37:46;18.40;47.30
81935;DHT22;71405;47.674;-2.050;2024-01-15T07:40:12;18.40;47.20
81935;DHT22;71405;47.674;-2.050;2024-01-15T07:42:38;18.40;47.30
81935;DHT22;71405;47.674;-2.050;2024-01-15T07:45:04;18.40;46.90
81935;DHT22;71405;47.674;-2.050;2024-01-15T07:47:30;18.40;46.90
81935;DHT22;71405;47.674;-2.050;2024-01-15T07:49:56;18.40;46.70
81935;DHT22;71405;47.674;-2.050;2024-01-15T07:52:21;18.40;46.90
81935;DHT22;71405;47.674;-2.050;2024-01-15T07:54:47;18.40;46.50
81935;DHT22;71405;47.674;-2.050;2024-01-15T07:57:13;18.40;46.50
81935;DHT22;71405;47.674;-2.050;2024-01-15T07:59:38;18.40;46.70
81935;DHT22;71405;47.674;-2.050;2024-01-15T08:02:05;18.40;46.40
81935;DHT22;71405;47.674;-2.050;2024-01-15T08:04:31;18.40;46.30
81935;DHT22;71405;47.674;-2.050;2024-01-15T08:06:57;18.40;46.40
81935;DHT22;71405;47.674;-2.050;2024-01-15T08:09:22;18.40;46.20
81935;DHT22;71405;47.674;-2.050;2024-01-15T08:11:48;18.40;46.00
81935;DHT22;71405;47.674;-2.050;2024-01-15T08:14:17;18.40;46.00
81935;DHT22;71405;47.674;-2.050;2024-01-15T08:16:43;18.40;46.10
81935;DHT22;71405;47.674;-2.050;2024-01-15T08:19:09;18.40;45.90
81935;DHT22;71405;47.674;-2.050;2024-01-15T08:21:35;18.30;45.90
81935;DHT22;71405;47.674;-2.050;2024-01-15T08:24:01;18.40;45.90
81935;DHT22;71405;47.674;-2.050;2024-01-15T08:26:28;18.40;45.80
81935;DHT22;71405;47.674;-2.050;2024-01-15T08:28:53;18.40;45.90
81935;DHT22;71405;47.674;-2.050;2024-01-15T08:31:19;18.30;45.80
81935;DHT22;71405;47.674;-2.050;2024-01-15T08:33:45;18.40;45.80
81935;DHT22;71405;47.674;-2.050;2024-01-15T08:36:11;18.40;45.80
81935;DHT22;71405;47.674;-2.050;2024-01-15T08:38:37;18.30;46.00
81935;DHT22;71405;47.674;-2.050;2024-01-15T08:41:03;18.30;45.70
81935;DHT22;71405;47.674;-2.050;2024-01-15T08:43:28;18.30;45.70
81935;DHT22;71405;47.674;-2.050;2024-01-15T08:45:56;18.30;45.60
81935;DHT22;71405;47.674;-2.050;2024-01-15T08:48:22;18.30;45.70
81935;DHT22;71405;47.674;-2.050;2024-01-15T08:50:48;18.30;45.50
81935;DHT22;71405;47.674;-2.050;2024-01-15T08:53:14;18.30;45.50
81935;DHT22;71405;47.674;-2.050;2024-01-15T08:55:40;18.20;45.60
81935;DHT22;71405;47.674;-2.050;2024-01-15T08:58:08;18.30;45.70
81935;DHT22;71405;47.674;-2.050;2024-01-15T09:00:34;18.30;45.50
81935;DHT22;71405;47.674;-2.050;2024-01-15T09:02:59;18.30;45.50
81935;DHT22;71405;47.674;-2.050;2024-01-15T09:05:25;18.30;45.60
81935;DHT22;71405;47.674;-2.050;2024-01-15T09:07:51;18.30;45.30
81935;DHT22;71405;47.674;-2.050;2024-01-15T09:10:18;18.40;45.90
81935;DHT22;71405;47.674;-2.050;2024-01-15T09:12:43;18.40;45.30
81935;DHT22;71405;47.674;-2.050;2024-01-15T09:15:09;18.50;45.20
81935;DHT22;71405;47.674;-2.050;2024-01-15T09:17:35;18.50;45.10
81935;DHT22;71405;47.674;-2.050;2024-01-15T09:20:00;18.50;45.00
81935;DHT22;71405;47.674;-2.050;2024-01-15T09:22:26;18.50;44.90
81935;DHT22;71405;47.674;-2.050;2024-01-15T09:24:52;18.60;45.00
81935;DHT22;71405;47.674;-2.050;2024-01-15T09:27:18;18.50;45.00
81935;DHT22;71405;47.674;-2.050;2024-01-15T09:29:43;18.50;45.00
81935;DHT22;71405;47.674;-2.050;2024-01-15T09:32:11;18.50;45.00
81935;DHT22;71405;47.674;-2.050;2024-01-15T09:34:38;18.50;44.80
81935;DHT22;71405;47.674;-2.050;2024-01-15T09:37:04;18.60;45.00
81935;DHT22;71405;47.674;-2.050;2024-01-15T09:39:30;18.60;44.80
81935;DHT22;71405;47.674;-2.050;2024-01-15T09:41:57;18.60;44.70
81935;DHT22;71405;47.674;-2.050;2024-01-15T09:44:23;18.60;44.70
81935;DHT22;71405;47.674;-2.050;2024-01-15T09:46:49;18.60;44.70
81935;DHT22;71405;47.674;-2.050;2024-01-15T09:49:18;18.60;44.60
81935;DHT22;71405;47.674;-2.050;2024-01-15T09:51:45;18.60;44.50
81935;DHT22;71405;47.674;-2.050;2024-01-15T09:54:11;18.60;44.60
81935;DHT22;71405;47.674;-2.050;2024-01-15T09:56:39;18.60;44.50
81935;DHT22;71405;47.674;-2.050;2024-01-15T09:59:05;18.60;44.60
81935;DHT22;71405;47.674;-2.050;2024-01-15T10:01:32;18.60;44.60
81935;DHT22;71405;47.674;-2.050;2024-01-15T10:03:58;18.70;44.60
81935;DHT22;71405;47.674;-2.050;2024-01-15T10:06:27;18.70;44.50
81935;DHT22;71405;47.674;-2.050;2024-01-15T10:08:54;18.60;44.60
81935;DHT22;71405;47.674;-2.050;2024-01-15T10:11:22;18.70;45.00
81935;DHT22;71405;47.674;-2.050;2024-01-15T10:13:48;18.70;44.70
81935;DHT22;71405;47.674;-2.050;2024-01-15T10:16:19;18.70;44.60
81935;DHT22;71405;47.674;-2.050;2024-01-15T10:18:44;18.70;44.70
81935;DHT22;71405;47.674;-2.050;2024-01-15T10:21:10;18.70;44.50
81935;DHT22;71405;47.674;-2.050;2024-01-15T10:23:35;18.70;44.50
81935;DHT22;71405;47.674;-2.050;2024-01-15T10:26:02;18.70;44.50
81935;DHT22;71405;47.674;-2.050;2024-01-15T10:28:28;18.70;44.60
81935;DHT22;71405;47.674;-2.050;2024-01-15T10:30:57;18.70;44.60
81935;DHT22;71405;47.674;-2.050;2024-01-15T10:33:24;18.70;44.40
81935;DHT22;71405;47.674;-2.050;2024-01-15T10:35:57;18.70;44.50
81935;DHT22;71405;47.674;-2.050;2024-01-15T10:38:24;18.70;44.40
81935;DHT22;71405;47.674;-2.050;2024-01-15T10:40:54;18.80;44.50
81935;DHT22;71405;47.674;-2.050;2024-01-15T10:43:20;18.80;44.60
81935;DHT22;71405;47.674;-2.050;2024-01-15T10:45:50;18.80;44.40
81935;DHT22;71405;47.674;-2.050;2024-01-15T10:48:17;18.80;44.40
81935;DHT22;71405;47.674;-2.050;2024-01-15T10:50:44;18.80;44.40
81935;DHT22;71405;47.674;-2.050;2024-01-15T10:53:15;18.80;44.60
81935;DHT22;71405;47.674;-2.050;2024-01-15T10:55:41;18.80;44.50
81935;DHT22;71405;47.674;-2.050;2024-01-15T10:58:08;18.90;44.50
81935;DHT22;71405;47.674;-2.050;2024-01-15T11:00:35;18.90;44.90
81935;DHT22;71405;47.674;-2.050;2024-01-15T11:03:03;19.00;44.50
81935;DHT22;71405;47.674;-2.050;2024-01-15T11:05:37;18.90;44.70
81935;DHT22;71405;47.674;-2.050;2024-01-15T11:08:05;19.00;45.20
81935;DHT22;71405;47.674;-2.050;2024-01-15T11:10:46;19.00;45.00
81935;DHT22;71405;47.674;-2.050;2024-01-15T11:13:15;19.00;45.10
81935;DHT22;71405;47.674;-2.050;2024-01-15T11:18:35;18.80;45.30
81935;DHT22;71405;47.674;-2.050;2024-01-15T11:23:43;18.70;45.70
81935;DHT22;71405;47.674;-2.050;2024-01-15T11:28:54;18.80;45.90
81935;DHT22;71405;47.674;-2.050;2024-01-15T11:31:20;18.80;46.10
81935;DHT22;71405;47.674;-2.050;2024-01-15T11:33:52;18.90;46.50
81935;DHT22;71405;47.674;-2.050;2024-01-15T11:36:17;18.90;46.30
81935;DHT22;71405;47.674;-2.050;2024-01-15T11:38:43;18.90;46.60
81935;DHT22;71405;47.674;-2.050;2024-01-15T11:41:15;18.90;47.20
81935;DHT22;71405;47.674;-2.050;2024-01-15T11:43:41;18.90;46.80
81935;DHT22;71405;47.674;-2.050;2024-01-15T11:46:11;19.00;47.20
81935;DHT22;71405;47.674;-2.050;2024-01-15T11:48:44;19.00;47.20
81935;DHT22;71405;47.674;-2.050;2024-01-15T11:51:12;19.00;47.40
81935;DHT22;71405;47.674;-2.050;2024-01-15T11:53:48;19.00;47.60
81935;DHT22;71405;47.674;-2.050;2024-01-15T11:56:18;19.10;46.70
81935;DHT22;71405;47.674;-2.050;2024-01-15T11:58:47;19.10;46.50
81935;DHT22;71405;47.674;-2.050;2024-01-15T12:01:13;19.10;47.50
81935;DHT22;71405;47.674;-2.050;2024-01-15T12:03:39;19.10;46.60
81935;DHT22;71405;47.674;-2.050;2024-01-15T12:06:09;19.10;46.60
81935;DHT22;71405;47.674;-2.050;2024-01-15T12:08:35;19.20;46.50
81935;DHT22;71405;47.674;-2.050;2024-01-15T12:11:10;19.20;46.60
81935;DHT22;71405;47.674;-2.050;2024-01-15T12:13:36;19.20;47.10
81935;DHT22;71405;47.674;-2.050;2024-01-15T12:16:02;19.10;46.70
81935;DHT22;71405;47.674;-2.050;2024-01-15T12:18:29;19.20;47.00
81935;DHT22;71405;47.674;-2.050;2024-01-15T12:20:55;19.20;46.50
81935;DHT22;71405;47.674;-2.050;2024-01-15T12:23:20;19.20;46.40
81935;DHT22;71405;47.674;-2.050;2024-01-15T12:25:46;19.30;46.30
81935;DHT22;71405;47.674;-2.050;2024-01-15T12:28:12;19.20;47.00
81935;DHT22;71405;47.674;-2.050;2024-01-15T12:30:38;19.20;47.10
81935;DHT22;71405;47.674;-2.050;2024-01-15T12:33:05;19.30;46.40
81935;DHT22;71405;47.674;-2.050;2024-01-15T12:35:31;19.30;46.20
81935;DHT22;71405;47.674;-2.050;2024-01-15T12:37:57;19.20;46.40
81935;DHT22;71405;47.674;-2.050;2024-01-15T12:40:23;19.30;46.40
81935;DHT22;71405;47.674;-2.050;2024-01-15T12:42:49;19.30;46.60
81935;DHT22;71405;47.674;-2.050;2024-01-15T12:45:15;19.30;46.60
81935;DHT22;71405;47.674;-2.050;2024-01-15T12:47:41;19.30;47.20
81935;DHT22;71405;47.674;-2.050;2024-01-15T12:50:11;19.30;47.10
81935;DHT22;71405;47.674;-2.050;2024-01-15T12:52:39;19.30;46.50
81935;DHT22;71405;47.674;-2.050;2024-01-15T12:55:06;19.30;46.50
81935;DHT22;71405;47.674;-2.050;2024-01-15T12:57:32;19.30;46.30
81935;DHT22;71405;47.674;-2.050;2024-01-15T12:59:58;19.20;46.20
81935;DHT22;71405;47.674;-2.050;2024-01-15T13:02:24;19.20;46.90
81935;DHT22;71405;47.674;-2.050;2024-01-15T13:04:50;19.20;46.30
81935;DHT22;71405;47.674;-2.050;2024-01-15T13:07:15;19.20;46.20
81935;DHT22;71405;47.674;-2.050;2024-01-15T13:09:41;19.20;46.00
81935;DHT22;71405;47.674;-2.050;2024-01-15T13:12:07;19.20;45.90
81935;DHT22;71405;47.674;-2.050;2024-01-15T13:14:33;19.20;46.00
81935;DHT22;71405;47.674;-2.050;2024-01-15T13:16:59;19.20;46.30
81935;DHT22;71405;47.674;-2.050;2024-01-15T13:19:24;19.20;46.00
81935;DHT22;71405;47.674;-2.050;2024-01-15T13:21:50;19.20;45.90
81935;DHT22;71405;47.674;-2.050;2024-01-15T13:24:17;19.20;45.70
81935;DHT22;71405;47.674;-2.050;2024-01-15T13:26:43;19.20;45.80
81935;DHT22;71405;47.674;-2.050;2024-01-15T13:29:09;19.20;45.80
81935;DHT22;71405;47.674;-2.050;2024-01-15T13:31:34;19.20;45.50
81935;DHT22;71405;47.674;-2.050;2024-01-15T13:34:00;19.20;45.90
81935;DHT22;71405;47.674;-2.050;2024-01-15T13:36:26;19.20;45.50
81935;DHT22;71405;47.674;-2.050;2024-01-15T13:38:53;19.20;45.40
81935;DHT22;71405;47.674;-2.050;2024-01-15T13:41:20;19.20;45.60
81935;DHT22;71405;47.674;-2.050;2024-01-15T13:43:49;19.10;45.70
81935;DHT22;71405;47.674;-2.050;2024-01-15T13:46:16;19.10;46.10
81935;DHT22;71405;47.674;-2.050;2024-01-15T13:48:43;19.20;45.80
81935;DHT22;71405;47.674;-2.050;2024-01-15T13:51:08;19.20;45.30
81935;DHT22;71405;47.674;-2.050;2024-01-15T13:53:34;19.30;45.30
81935;DHT22;71405;47.674;-2.050;2024-01-15T13:56:00;19.30;45.40
81935;DHT22;71405;47.674;-2.050;2024-01-15T13:58:26;19.30;45.90
81935;DHT22;71405;47.674;-2.050;2024-01-15T14:00:51;19.30;45.60
81935;DHT22;71405;47.674;-2.050;2024-01-15T14:03:17;19.30;45.50
81935;DHT22;71405;47.674;-2.050;2024-01-15T14:05:44;19.30;45.40
81935;DHT22;71405;47.674;-2.050;2024-01-15T14:08:10;19.20;43.10
81935;DHT22;71405;47.674;-2.050;2024-01-15T14:10:36;18.90;44.10
81935;DHT22;71405;47.674;-2.050;2024-01-15T14:13:02;19.00;44.70
81935;DHT22;71405;47.674;-2.050;2024-01-15T14:15:29;19.10;45.20
81935;DHT22;71405;47.674;-2.050;2024-01-15T14:17:54;19.10;44.80
81935;DHT22;71405;47.674;-2.050;2024-01-15T14:20:20;19.20;44.90
81935;DHT22;71405;47.674;-2.050;2024-01-15T14:22:47;19.30;46.00
81935;DHT22;71405;47.674;-2.050;2024-01-15T14:25:13;19.30;45.50
81935;DHT22;71405;47.674;-2.050;2024-01-15T14:27:39;19.40;46.10
81935;DHT22;71405;47.674;-2.050;2024-01-15T14:30:05;19.30;46.10
81935;DHT22;71405;47.674;-2.050;2024-01-15T14:32:31;19.40;46.70
81935;DHT22;71405;47.674;-2.050;2024-01-15T14:34:57;19.40;46.10
81935;DHT22;71405;47.674;-2.050;2024-01-15T14:37:23;19.40;45.30
81935;DHT22;71405;47.674;-2.050;2024-01-15T14:39:48;19.40;45.50
81935;DHT22;71405;47.674;-2.050;2024-01-15T14:42:14;19.40;45.90
81935;DHT22;71405;47.674;-2.050;2024-01-15T14:44:40;19.40;45.40
81935;DHT22;71405;47.674;-2.050;2024-01-15T14:47:06;19.50;45.50
81935;DHT22;71405;47.674;-2.050;2024-01-15T14:49:33;19.40;45.90
81935;DHT22;71405;47.674;-2.050;2024-01-15T14:51:59;19.50;45.20
81935;DHT22;71405;47.674;-2.050;2024-01-15T14:54:25;19.50;45.50
81935;DHT22;71405;47.674;-2.050;2024-01-15T14:56:51;19.50;45.80
81935;DHT22;71405;47.674;-2.050;2024-01-15T14:59:17;19.50;45.30
81935;DHT22;71405;47.674;-2.050;2024-01-15T15:01:43;19.50;45.50
81935;DHT22;71405;47.674;-2.050;2024-01-15T15:04:08;19.50;45.80
81935;DHT22;71405;47.674;-2.050;2024-01-15T15:06:36;19.40;45.00
81935;DHT22;71405;47.674;-2.050;2024-01-15T15:09:02;19.40;45.40
81935;DHT22;71405;47.674;-2.050;2024-01-15T15:11:34;19.40;46.40
81935;DHT22;71405;47.674;-2.050;2024-01-15T15:14:00;19.50;45.70
81935;DHT22;71405;47.674;-2.050;2024-01-15T15:16:26;19.40;44.90
81935;DHT22;71405;47.674;-2.050;2024-01-15T15:18:53;19.40;45.10